sensor_id;sensor_type;location;lat;lon;timestamp;pressure;altitude;pressure_sealevel;temperature;humidity
2875;BME280;1445;52.600;13.328;2023-01-28T12:30:06;102165.91;;;3.78;100.00
2875;BME280;1445;52.600;13.328;2023-01-28T12:35:47;102162.09;;;2.77;100.00
2875;BME280;1445;52.600;13.328;2023-01-28T12:41:12;102156.03;;;2.62;100.00
2875;BME280;1445;52.600;13.328;2023-01-28T12:43:50;102155.66;;;2.45;100.00
2875;BME280;1445;52.600;13.328;2023-01-28T12:49:12;102148.56;;;2.31;100.00
2875;BME280;1445;52.600;13.328;2023-01-28T12:57:31;102145.44;;;2.27;100.00
2875;BME280;1445;52.600;13.328;2023-01-28T13:00:24;102136.88;;;2.10;100.00
2875;BME280;1445;52.600;13.328;2023-01-28T13:03:10;102122.66;;;2.15;100.00
2875;BME280;1445;52.600;13.328;2023-01-28T13:06:16;102118.34;;;2.59;100.00
2875;BME280;1445;52.600;13.328;2023-01-28T13:08:44;102112.72;;;2.54;100.00
2875;BME280;1445;52.600;13.328;2023-01-28T13:11:14;102112.56;;;2.35;100.00
2875;BME280;1445;52.600;13.328;2023-01-28T13:13:44;102109.84;;;2.35;100.00
2875;BME280;1445;52.600;13.328;2023-01-28T13:16:11;102110.47;;;2.37;100.00
2875;BME280;1445;52.600;13.328;2023-01-28T13:21:29;102103.59;;;2.28;100.00
2875;BME280;1445;52.600;13.328;2023-01-28T13:26:48;102102.31;;;2.24;100.00
2875;BME280;1445;52.600;13.328;2023-01-28T13:29:28;102097.34;;;2.21;100.00
2875;BME280;1445;52.600;13.328;2023-01-28T13:32:02;102092.66;;;2.35;100.00
2875;BME280;1445;52.600;13.328;2023-01-28T13:34:56;102101.28;;;2.25;100.00
2875;BME280;1445;52.600;13.328;2023-01-28T13:37:30;102104.34;;;2.49;100.00
2875;BME280;1445;52.600;13.328;2023-01-28T13:42:37;102090.47;;;3.08;100.00
2875;BME280;1445;52.600;13.328;2023-01-28T13:45:29;102091.81;;;2.41;100.00
2875;BME280;1445;52.600;13.328;2023-01-28T13:48:00;102090.16;;;2.40;100.00
2875;BME280;1445;52.600;13.328;2023-01-28T13:50:39;102088.09;;;2.29;100.00
2875;BME280;1445;52.600;13.328;2023-01-28T13:53:29;102092.56;;;1.83;100.00
2875;BME280;1445;52.600;13.328;2023-01-28T13:56:05;102083.78;;;1.88;100.00
2875;BME280;1445;52.600;13.328;2023-01-28T14:04:25;102087.00;;;2.50;100.00
2875;BME280;1445;52.600;13.328;2023-01-28T14:10:03;102068.09;;;2.55;100.00
2875;BME280;1445;52.600;13.328;2023-01-28T14:17:47;102082.09;;;1.94;100.00
2875;BME280;1445;52.600;13.328;2023-01-28T14:22:45;102074.38;;;1.77;100.00
2875;BME280;1445;52.600;13.328;2023-01-28T14:25:14;102080.03;;;1.76;100.00
2875;BME280;1445;52.600;13.328;2023-01-28T14:27:44;102094.66;;;1.75;100.00
2875;BME280;1445;52.600;13.328;2023-01-28T14:30:42;102093.41;;;1.71;100.00
2875;BME280;1445;52.600;13.328;2023-01-28T14:33:11;102094.66;;;1.68;100.00
2875;BME280;1445;52.600;13.328;2023-01-28T14:35:39;102101.78;;;1.76;100.00
2875;BME280;1445;52.600;13.328;2023-01-28T14:38:13;102098.19;;;1.75;100.00
2875;BME280;1445;52.600;13.328;2023-01-28T14:40:40;102100.31;;;1.73;100.00
2875;BME280;1445;52.600;13.328;2023-01-28T14:43:14;102098.19;;;1.88;100.00
2875;BME280;1445;52.600;13.328;2023-01-28T14:48:39;102106.34;;;1.75;100.00
2875;BME280;1445;52.600;13.328;2023-01-28T14:51:22;102102.59;;;1.76;100.00
2875;BME280;1445;52.600;13.328;2023-01-28T14:59:49;102110.94;;;1.61;100.00
2875;BME280;1445;52.600;13.328;2023-01-28T15:02:22;102103.41;;;1.50;100.00
2875;BME280;1445;52.600;13.328;2023-01-28T15:04:49;102102.59;;;1.56;100.00
2875;BME280;1445;52.600;13.328;2023-01-28T15:07:18;102108.25;;;1.55;100.00
2875;BME280;1445;52.600;13.328;2023-01-28T15:09:44;102103.00;;;1.60;100.00
2875;BME280;1445;52.600;13.328;2023-01-28T15:12:09;102097.78;;;1.52;100.00
2875;BME280;1445;52.600;13.328;2023-01-28T15:14:35;102094.44;;;1.56;100.00
2875;BME280;1445;52.600;13.328;2023-01-28T15:17:01;102103.84;;;1.54;100.00
2875;BME280;1445;52.600;13.328;2023-01-28T15:19:32;102108.25;;;1.55;100.00
2875;BME280;1445;52.600;13.328;2023-01-28T15:22:04;102100.28;;;1.53;100.00
2875;BME280;1445;52.600;13.328;2023-01-28T15:24:33;102094.66;;;1.48;100.00
2875;BME280;1445;52.600;13.328;2023-01-28T15:27:00;102085.66;;;1.41;100.00
2875;BME280;1445;52.600;13.328;2023-01-28T15:29:33;102093.19;;;1.39;100.00
2875;BME280;1445;52.600;13.328;2023-01-28T15:32:01;102108.00;;;1.30;100.00
2875;BME280;1445;52.600;13.328;2023-01-28T15:34:27;102107.75;;;1.18;100.00
2875;BME280;1445;52.600;13.328;2023-01-28T15:36:57;102099.00;;;1.23;100.00
2875;BME280;1445;52.600;13.328;2023-01-28T15:39:24;102099.44;;;1.19;100.00
2875;BME280;1445;52.600;13.328;2023-01-28T15:41:56;102109.88;;;1.16;100.00
2875;BME280;1445;52.600;13.328;2023-01-28T15:44:43;102108.16;;;1.15;100.00
2875;BME280;1445;52.600;13.328;2023-01-28T15:49:48;102117.56;;;1.06;100.00
2875;BME280;1445;52.600;13.328;2023-01-28T15:52:14;102119.22;;;1.07;100.00
2875;BME280;1445;52.600;13.328;2023-01-28T15:54:47;102120.28;;;1.06;100.00
2875;BME280;1445;52.600;13.328;2023-01-28T15:57:19;102131.28;;;0.91;100.00
2875;BME280;1445;52.600;13.328;2023-01-28T15:59:46;102139.44;;;0.91;100.00
2875;BME280;1445;52.600;13.328;2023-01-28T16:04:56;102155.72;;;0.91;100.00
2875;BME280;1445;52.600;13.328;2023-01-28T16:07:23;102152.78;;;0.86;100.00
2875;BME280;1445;52.600;13.328;2023-01-28T16:09:53;102140.44;;;0.83;100.00
2875;BME280;1445;52.600;13.328;2023-01-28T16:12:22;102131.53;;;0.96;100.00
2875;BME280;1445;52.600;13.328;2023-01-28T16:14:56;102136.50;;;0.86;100.00
2875;BME280;1445;52.600;13.328;2023-01-28T16:17:26;102139.59;;;0.76;100.00
2875;BME280;1445;52.600;13.328;2023-01-28T16:20:04;102129.59;;;0.83;100.00
2875;BME280;1445;52.600;13.328;2023-01-28T16:22:38;102120.22;;;0.86;100.00
2875;BME280;1445;52.600;13.328;2023-01-28T16:25:38;102116.22;;;0.82;100.00
2875;BME280;1445;52.600;13.328;2023-01-28T16:28:17;102132.28;;;0.77;100.00
2875;BME280;1445;52.600;13.328;2023-01-28T16:30:43;102120.44;;;0.84;100.00
2875;BME280;1445;52.600;13.328;2023-01-28T16:33:20;102122.06;;;0.79;100.00
2875;BME280;1445;52.600;13.328;2023-01-28T16:35:46;102130.00;;;0.80;100.00
2875;BME280;1445;52.600;13.328;2023-01-28T16:38:11;102134.38;;;0.75;100.00
2875;BME280;1445;52.600;13.328;2023-01-28T16:40:42;102140.19;;;0.71;100.00
2875;BME280;1445;52.600;13.328;2023-01-28T16:43:12;102130.81;;;0.74;100.00
2875;BME280;1445;52.600;13.328;2023-01-28T16:45:38;102141.22;;;0.64;100.00
2875;BME280;1445;52.600;13.328;2023-01-28T16:48:03;102139.94;;;0.60;100.00
2875;BME280;1445;52.600;13.328;2023-01-28T16:50:30;102144.50;;;0.59;100.00
2875;BME280;1445;52.600;13.328;2023-01-28T16:52:55;102147.53;;;0.78;100.00
2875;BME280;1445;52.600;13.328;2023-01-28T16:55:22;102154.81;;;0.70;100.00
2875;BME280;1445;52.600;13.328;2023-01-28T16:57:51;102160.81;;;0.66;100.00
2875;BME280;1445;52.600;13.328;2023-01-28T17:00:21;102153.72;;;0.65;100.00
2875;BME280;1445;52.600;13.328;2023-01-28T17:02:48;102158.41;;;0.78;100.00
2875;BME280;1445;52.600;13.328;2023-01-28T17:05:14;102162.31;;;0.68;100.00
2875;BME280;1445;52.600;13.328;2023-01-28T17:07:40;102171.50;;;0.67;100.00
2875;BME280;1445;52.600;13.328;2023-01-28T17:10:07;102176.72;;;0.69;100.00
2875;BME280;1445;52.600;13.328;2023-01-28T17:12:32;102175.41;;;0.58;100.00
2875;BME280;1445;52.600;13.328;2023-01-28T17:14:58;102181.03;;;0.57;100.00
2875;BME280;1445;52.600;13.328;2023-01-28T17:17:23;102167.25;;;0.58;100.00
2875;BME280;1445;52.600;13.328;2023-01-28T17:19:49;102176.81;;;0.47;100.00
2875;BME280;1445;52.600;13.328;2023-01-28T17:22:14;102181.88;;;0.57;100.00
2875;BME280;1445;52.600;13.328;2023-01-28T17:24:40;102193.13;;;0.54;100.00
2875;BME280;1445;52.600;13.328;2023-01-28T17:27:05;102196.31;;;0.64;100.00
2875;BME280;1445;52.600;13.328;2023-01-28T17:29:31;102181.22;;;0.55;100.00
2875;BME280;1445;52.600;13.328;2023-01-28T17:31:56;102192.97;;;0.62;100.00
2875;BME280;1445;52.600;13.328;2023-01-28T17:34:23;102205.47;;;0.57;100.00
2875;BME280;1445;52.600;13.328;2023-01-28T17:36:48;102182.50;;;0.59;100.00
2875;BME280;1445;52.600;13.328;2023-01-28T17:39:14;102182.44;;;0.53;100.00
2875;BME280;1445;52.600;13.328;2023-01-28T17:41:39;102170.72;;;0.45;100.00
2875;BME280;1445;52.600;13.328;2023-01-28T17:44:04;102159.59;;;0.34;100.00
2875;BME280;1445;52.600;13.328;2023-01-28T17:46:30;102176.28;;;0.31;100.00
2875;BME280;1445;52.600;13.328;2023-01-28T17:48:55;102174.59;;;0.30;100.00
2875;BME280;1445;52.600;13.328;2023-01-28T17:51:21;102156.66;;;0.29;100.00
2875;BME280;1445;52.600;13.328;2023-01-28T17:53:48;102154.72;;;0.22;100.00
2875;BME280;1445;52.600;13.328;2023-01-28T17:56:19;102171.59;;;0.18;100.00
2875;BME280;1445;52.600;13.328;2023-01-28T17:58:50;102178.84;;;0.11;100.00
2875;BME280;1445;52.600;13.328;2023-01-28T18:01:16;102179.69;;;0.11;100.00
2875;BME280;1445;52.600;13.328;2023-01-28T18:03:41;102177.38;;;0.08;100.00
2875;BME280;1445;52.600;13.328;2023-01-28T18:06:07;102181.31;;;0.06;100.00
2875;BME280;1445;52.600;13.328;2023-01-28T18:08:35;102192.53;;;0.03;100.00
2875;BME280;1445;52.600;13.328;2023-01-28T18:11:01;102186.59;;;-0.08;100.00
2875;BME280;1445;52.600;13.328;2023-01-28T18:13:30;102170.28;;;-0.14;100.00
2875;BME280;1445;52.600;13.328;2023-01-28T18:15:56;102153.78;;;-0.19;100.00
2875;BME280;1445;52.600;13.328;2023-01-28T18:18:21;102159.41;;;-0.21;100.00
2875;BME280;1445;52.600;13.328;2023-01-28T18:21:35;102167.66;;;-0.29;100.00
2875;BME280;1445;52.600;13.328;2023-01-28T18:24:02;102181.47;;;-0.24;100.00
2875;BME280;1445;52.600;13.328;2023-01-28T18:26:29;102175.41;;;-0.26;100.00
2875;BME280;1445;52.600;13.328;2023-01-28T18:28:54;102172.25;;;-0.30;100.00
2875;BME280;1445;52.600;13.328;2023-01-28T18:31:20;102175.53;;;-0.34;100.00
2875;BME280;1445;52.600;13.328;2023-01-28T18:33:45;102171.78;;;-0.33;100.00
2875;BME280;1445;52.600;13.328;2023-01-28T18:36:12;102174.88;;;-0.36;100.00
2875;BME280;1445;52.600;13.328;2023-01-28T18:38:37;102168.69;;;-0.30;100.00
2875;BME280;1445;52.600;13.328;2023-01-28T18:41:03;102173.53;;;-0.26;100.00
2875;BME280;1445;52.600;13.328;2023-01-28T18:43:28;102168.69;;;-0.30;100.00
2875;BME280;1445;52.600;13.328;2023-01-28T18:45:57;102168.56;;;-0.22;100.00
2875;BME280;1445;52.600;13.328;2023-01-28T18:48:24;102175.03;;;-0.23;100.00
2875;BME280;1445;52.600;13.328;2023-01-28T18:50:51;102184.03;;;-0.16;100.00
2875;BME280;1445;52.600;13.328;2023-01-28T18:53:17;102171.16;;;-0.14;100.00
2875;BME280;1445;52.600;13.328;2023-01-28T18:55:43;102183.66;;;-0.13;100.00
2875;BME280;1445;52.600;13.328;2023-01-28T18:58:08;102183.00;;;-0.15;100.00
2875;BME280;1445;52.600;13.328;2023-01-28T19:00:34;102184.72;;;-0.07;100.00
2875;BME280;1445;52.600;13.328;2023-01-28T19:03:00;102164.75;;;-0.06;100.00
2875;BME280;1445;52.600;13.328;2023-01-28T19:05:26;102164.53;;;-0.05;100.00
2875;BME280;1445;52.600;13.328;2023-01-28T19:07:51;102168.44;;;-0.14;100.00
2875;BME280;1445;52.600;13.328;2023-01-28T19:10:17;102176.81;;;-0.09;100.00
2875;BME280;1445;52.600;13.328;2023-01-28T19:12:44;102167.00;;;-0.10;100.00
2875;BME280;1445;52.600;13.328;2023-01-28T19:15:10;102167.41;;;-0.13;100.00
2875;BME280;1445;52.600;13.328;2023-01-28T19:17:35;102164.69;;;-0.13;100.00
2875;BME280;1445;52.600;13.328;2023-01-28T19:20:01;102170.72;;;-0.11;100.00
2875;BME280;1445;52.600;13.328;2023-01-28T19:22:26;102178.25;;;-0.13;100.00
2875;BME280;1445;52.600;13.328;2023-01-28T19:24:52;102177.34;;;-0.20;100.00
2875;BME280;1445;52.600;13.328;2023-01-28T19:27:17;102166.50;;;-0.20;100.00
2875;BME280;1445;52.600;13.328;2023-01-28T19:29:43;102163.78;;;-0.20;100.00
2875;BME280;1445;52.600;13.328;2023-01-28T19:32:08;102166.69;;;-0.21;100.00
2875;BME280;1445;52.600;13.328;2023-01-28T19:34:33;102162.50;;;-0.24;100.00
2875;BME280;1445;52.600;13.328;2023-01-28T19:36:59;102158.63;;;-0.36;100.00
2875;BME280;1445;52.600;13.328;2023-01-28T19:39:24;102160.28;;;-0.35;100.00
2875;BME280;1445;52.600;13.328;2023-01-28T19:41:50;102153.59;;;-0.39;100.00
2875;BME280;1445;52.600;13.328;2023-01-28T19:44:15;102164.44;;;-0.39;100.00
2875;BME280;1445;52.600;13.328;2023-01-28T19:46:41;102161.47;;;-0.44;100.00
2875;BME280;1445;52.600;13.328;2023-01-28T19:49:06;102179.22;;;-0.42;100.00
2875;BME280;1445;52.600;13.328;2023-01-28T19:51:33;102180.00;;;-0.48;100.00
2875;BME280;1445;52.600;13.328;2023-01-28T19:53:59;102178.72;;;-0.52;100.00
2875;BME280;1445;52.600;13.328;2023-01-28T19:56:25;102178.50;;;-0.51;100.00
2875;BME280;1445;52.600;13.328;2023-01-28T19:58:52;102184.97;;;-0.52;100.00
2875;BME280;1445;52.600;13.328;2023-01-28T20:01:23;102204.31;;;-0.55;100.00
2875;BME280;1445;52.600;13.328;2023-01-28T20:03:50;102202.19;;;-0.59;100.00
2875;BME280;1445;52.600;13.328;2023-01-28T20:06:17;102198.34;;;-0.65;100.00
2875;BME280;1445;52.600;13.328;2023-01-28T20:08:43;102197.06;;;-0.69;100.00
2875;BME280;1445;52.600;13.328;2023-01-28T20:11:11;102198.16;;;-0.63;100.00
2875;BME280;1445;52.600;13.328;2023-01-28T20:13:39;102196.41;;;-0.71;100.00
2875;BME280;1445;52.600;13.328;2023-01-28T20:16:07;102191.38;;;-0.74;100.00
2875;BME280;1445;52.600;13.328;2023-01-28T20:18:33;102191.78;;;-0.77;100.00
2875;BME280;1445;52.600;13.328;2023-01-28T20:21:00;102181.31;;;-0.80;100.00
2875;BME280;1445;52.600;13.328;2023-01-28T20:23:26;102176.38;;;-0.77;100.00
2875;BME280;1445;52.600;13.328;2023-01-28T20:25:52;102178.78;;;-0.82;100.00
2875;BME280;1445;52.600;13.328;2023-01-28T20:28:23;102181.69;;;-0.83;100.00
2875;BME280;1445;52.600;13.328;2023-01-28T20:30:49;102177.69;;;-0.87;100.00
2875;BME280;1445;52.600;13.328;2023-01-28T20:33:16;102166.75;;;-0.79;100.00
2875;BME280;1445;52.600;13.328;2023-01-28T20:35:43;102170.50;;;-0.80;100.00
2875;BME280;1445;52.600;13.328;2023-01-28T20:38:09;102168.41;;;-0.78;100.00
2875;BME280;1445;52.600;13.328;2023-01-28T20:40:36;102162.47;;;-0.88;100.00
2875;BME280;1445;52.600;13.328;2023-01-28T20:43:02;102167.31;;;-0.84;100.00
2875;BME280;1445;52.600;13.328;2023-01-28T20:45:27;102169.16;;;-0.84;100.00
2875;BME280;1445;52.600;13.328;2023-01-28T20:47:53;102166.88;;;-0.87;100.00
2875;BME280;1445;52.600;13.328;2023-01-28T20:50:18;102169.25;;;-0.78;100.00
2875;BME280;1445;52.600;13.328;2023-01-28T20:52:43;102167.88;;;-0.88;100.00
2875;BME280;1445;52.600;13.328;2023-01-28T20:55:09;102156.66;;;-0.85;100.00
2875;BME280;1445;52.600;13.328;2023-01-28T20:57:35;102156.59;;;-0.92;100.00
2875;BME280;1445;52.600;13.328;2023-01-28T21:00:04;102166.50;;;-0.99;100.00
2875;BME280;1445;52.600;13.328;2023-01-28T21:02:30;102170.25;;;-1.00;100.00
2875;BME280;1445;52.600;13.328;2023-01-28T21:04:56;102174.53;;;-1.06;100.00
2875;BME280;1445;52.600;13.328;2023-01-28T21:07:21;102170.00;;;-1.05;100.00
2875;BME280;1445;52.600;13.328;2023-01-28T21:09:47;102174.91;;;-0.94;100.00
2875;BME280;1445;52.600;13.328;2023-01-28T21:12:12;102169.88;;;-0.97;100.00
2875;BME280;1445;52.600;13.328;2023-01-28T21:14:37;102163.09;;;-1.08;100.00
2875;BME280;1445;52.600;13.328;2023-01-28T21:17:03;102162.97;;;-1.00;100.00
2875;BME280;1445;52.600;13.328;2023-01-28T21:19:28;102154.75;;;-1.06;100.00
2875;BME280;1445;52.600;13.328;2023-01-28T21:21:54;102148.88;;;-1.10;100.00
2875;BME280;1445;52.600;13.328;2023-01-28T21:24:19;102149.56;;;-1.08;100.00
2875;BME280;1445;52.600;13.328;2023-01-28T21:26:45;102152.63;;;-1.11;100.00
2875;BME280;1445;52.600;13.328;2023-01-28T21:29:10;102164.13;;;-1.09;100.00
2875;BME280;1445;52.600;13.328;2023-01-28T21:31:38;102153.00;;;-1.14;100.00
2875;BME280;1445;52.600;13.328;2023-01-28T21:34:04;102154.69;;;-1.13;100.00
2875;BME280;1445;52.600;13.328;2023-01-28T21:36:29;102148.25;;;-1.12;100.00
2875;BME280;1445;52.600;13.328;2023-01-28T21:38:58;102149.25;;;-1.13;100.00
2875;BME280;1445;52.600;13.328;2023-01-28T21:41:25;102150.50;;;-1.15;100.00
2875;BME280;1445;52.600;13.328;2023-01-28T21:43:51;102161.13;;;-1.14;100.00
2875;BME280;1445;52.600;13.328;2023-01-28T21:46:19;102156.63;;;-1.07;100.00
2875;BME280;1445;52.600;13.328;2023-01-28T21:48:44;102154.75;;;-1.06;100.00
2875;BME280;1445;52.600;13.328;2023-01-28T21:51:10;102155.59;;;-1.06;100.00
2875;BME280;1445;52.600;13.328;2023-01-28T21:53:54;102143.06;;;-0.92;100.00
2875;BME280;1445;52.600;13.328;2023-01-28T21:56:20;102148.38;;;-0.99;100.00
2875;BME280;1445;52.600;13.328;2023-01-28T21:58:46;102136.22;;;-0.88;100.00
2875;BME280;1445;52.600;13.328;2023-01-28T22:01:30;102140.19;;;-0.90;100.00
2875;BME280;1445;52.600;13.328;2023-01-28T22:03:55;102137.19;;;-0.96;100.00
2875;BME280;1445;52.600;13.328;2023-01-28T22:06:21;102138.22;;;-0.97;100.00
2875;BME280;1445;52.600;13.328;2023-01-28T22:08:46;102148.69;;;-0.93;100.00
2875;BME280;1445;52.600;13.328;2023-01-28T22:11:12;102140.72;;;-0.95;100.00
2875;BME280;1445;52.600;13.328;2023-01-28T22:13:37;102127.41;;;-0.97;100.00
2875;BME280;1445;52.600;13.328;2023-01-28T22:16:03;102135.53;;;-0.97;100.00
2875;BME280;1445;52.600;13.328;2023-01-28T22:18:29;102126.19;;;-0.94;100.00
2875;BME280;1445;52.600;13.328;2023-01-28T22:20:57;102126.09;;;-1.01;100.00
2875;BME280;1445;52.600;13.328;2023-01-28T22:23:23;102131.97;;;-0.97;100.00
2875;BME280;1445;52.600;13.328;2023-01-28T22:25:48;102134.31;;;-0.94;100.00
2875;BME280;1445;52.600;13.328;2023-01-28T22:28:14;102126.56;;;-0.97;100.00
2875;BME280;1445;52.600;13.328;2023-01-28T22:30:39;102124.31;;;-0.93;100.00
2875;BME280;1445;52.600;13.328;2023-01-28T22:33:05;102137.00;;;-0.94;100.00
2875;BME280;1445;52.600;13.328;2023-01-28T22:35:30;102135.78;;;-0.91;100.00
2875;BME280;1445;52.600;13.328;2023-01-28T22:37:55;102132.75;;;-0.82;100.00
2875;BME280;1445;52.600;13.328;2023-01-28T22:40:21;102131.75;;;-0.81;100.00
2875;BME280;1445;52.600;13.328;2023-01-28T22:42:47;102140.25;;;-0.84;100.00
2875;BME280;1445;52.600;13.328;2023-01-28T22:45:12;102141.25;;;-0.85;100.00
2875;BME280;1445;52.600;13.328;2023-01-28T22:47:38;102131.41;;;-0.71;100.00
2875;BME280;1445;52.600;13.328;2023-01-28T22:50:04;102122.84;;;-0.75;100.00
2875;BME280;1445;52.600;13.328;2023-01-28T22:52:29;102117.69;;;-0.69;100.00
2875;BME280;1445;52.600;13.328;2023-01-28T22:54:55;102119.22;;;-0.82;100.00
2875;BME280;1445;52.600;13.328;2023-01-28T22:57:20;102118.72;;;-0.70;100.00
2875;BME280;1445;52.600;13.328;2023-01-28T22:59:45;102111.63;;;-0.72;100.00
2875;BME280;1445;52.600;13.328;2023-01-28T23:02:11;102102.81;;;-0.80;100.00
2875;BME280;1445;52.600;13.328;2023-01-28T23:04:36;102106.91;;;-0.84;100.00
2875;BME280;1445;52.600;13.328;2023-01-28T23:07:02;102108.84;;;-0.78;100.00
2875;BME280;1445;52.600;13.328;2023-01-28T23:09:28;102103.56;;;-0.86;100.00
2875;BME280;1445;52.600;13.328;2023-01-28T23:11:53;102101.56;;;-0.78;100.00
2875;BME280;1445;52.600;13.328;2023-01-28T23:14:18;102098.00;;;-0.78;100.00
2875;BME280;1445;52.600;13.328;2023-01-28T23:17:02;102091.97;;;-0.80;100.00
2875;BME280;1445;52.600;13.328;2023-01-28T23:19:46;102093.44;;;-0.78;100.00
2875;BME280;1445;52.600;13.328;2023-01-28T23:22:31;102086.28;;;-0.85;100.00
2875;BME280;1445;52.600;13.328;2023-01-28T23:25:16;102078.81;;;-0.83;100.00
2875;BME280;1445;52.600;13.328;2023-01-28T23:27:42;102070.50;;;-0.82;100.00
2875;BME280;1445;52.600;13.328;2023-01-28T23:30:08;102078.06;;;-0.77;100.00
2875;BME280;1445;52.600;13.328;2023-01-28T23:32:36;102084.69;;;-0.80;100.00
2875;BME280;1445;52.600;13.328;2023-01-28T23:35:05;102072.13;;;-0.87;100.00
2875;BME280;1445;52.600;13.328;2023-01-28T23:37:30;102070.31;;;-0.80;100.00
2875;BME280;1445;52.600;13.328;2023-01-28T23:39:56;102074.81;;;-0.87;100.00
2875;BME280;1445;52.600;13.328;2023-01-28T23:42:21;102076.22;;;-0.91;100.00
2875;BME280;1445;52.600;13.328;2023-01-28T23:44:50;102071.69;;;-0.84;100.00
2875;BME280;1445;52.600;13.328;2023-01-28T23:47:16;102061.53;;;-0.82;100.00
2875;BME280;1445;52.600;13.328;2023-01-28T23:49:41;102067.72;;;-0.88;100.00
2875;BME280;1445;52.600;13.328;2023-01-28T23:52:07;102064.31;;;-0.76;100.00
2875;BME280;1445;52.600;13.328;2023-01-28T23:54:33;102055.34;;;-0.76;100.00
2875;BME280;1445;52.600;13.328;2023-01-28T23:56:59;102045.13;;;-0.81;100.00
2875;BME280;1445;52.600;13.328;2023-01-28T23:59:25;102047.56;;;-0.86;100.00
